Desert Aire, Washington
Current Conditions -  °F | °C
As of 12:38 AM on Friday 19 Dec 2014 (Local Time) from K1YT Reporting Station
Light Rain Light Rain  
Wind Chill: 37°   Ceiling: 300
Heat Index: 37°   Visibility: 0.88mi
Dew Point: 37°   Wind: 2mph
Humidity: 100%   Direction: 240°WSW
Pressure: 29.87"   Gusts: NA
Location:  46.6873°N, 119.887°W
Report Text: K1YT 190838Z AUTO 24002KT 7/8SM -RA FG OVC003 03/03 A2987 RMK AO2 VIS 7/8V2 RAB28
Loading
Personal Weather Stations






























Interactive Weather Map New forecast layout! Learn more

10-Day Weather Forecast

Advertisements
Track Severe Weather on mobile